sensor_id;sensor_type;location;lat;lon;timestamp;temperature;humidity
9790;DHT22;4934;50.852;8.098;2022-09-14T00:01:28;17.30;99.90
9790;DHT22;4934;50.852;8.098;2022-09-14T00:04:28;17.20;99.90
9790;DHT22;4934;50.852;8.098;2022-09-14T00:06:47;17.20;99.90
9790;DHT22;4934;50.852;8.098;2022-09-14T00:09:20;17.30;99.90
9790;DHT22;4934;50.852;8.098;2022-09-14T00:11:46;17.20;99.90
9790;DHT22;4934;50.852;8.098;2022-09-14T00:14:12;17.30;99.90
9790;DHT22;4934;50.852;8.098;2022-09-14T00:16:39;17.20;99.90
9790;DHT22;4934;50.852;8.098;2022-09-14T00:19:16;17.20;99.90
9790;DHT22;4934;50.852;8.098;2022-09-14T00:21:42;17.20;99.90
9790;DHT22;4934;50.852;8.098;2022-09-14T00:24:10;17.20;99.90
9790;DHT22;4934;50.852;8.098;2022-09-14T00:26:36;17.30;99.90
9790;DHT22;4934;50.852;8.098;2022-09-14T00:29:03;17.30;99.90
9790;DHT22;4934;50.852;8.098;2022-09-14T00:31:36;17.30;99.90
9790;DHT22;4934;50.852;8.098;2022-09-14T00:34:04;17.40;99.90
9790;DHT22;4934;50.852;8.098;2022-09-14T00:36:31;17.40;99.90
9790;DHT22;4934;50.852;8.098;2022-09-14T00:38:58;17.30;99.90
9790;DHT22;4934;50.852;8.098;2022-09-14T00:41:33;17.30;99.90
9790;DHT22;4934;50.852;8.098;2022-09-14T00:44:01;17.30;99.90
9790;DHT22;4934;50.852;8.098;2022-09-14T00:46:30;17.20;99.90
9790;DHT22;4934;50.852;8.098;2022-09-14T00:48:58;17.30;99.90
9790;DHT22;4934;50.852;8.098;2022-09-14T00:51:26;17.20;99.90
9790;DHT22;4934;50.852;8.098;2022-09-14T00:53:56;17.20;99.90
9790;DHT22;4934;50.852;8.098;2022-09-14T00:57:19;17.20;99.90
9790;DHT22;4934;50.852;8.098;2022-09-14T01:00:24;17.20;99.90
9790;DHT22;4934;50.852;8.098;2022-09-14T01:02:50;17.20;99.90
9790;DHT22;4934;50.852;8.098;2022-09-14T01:05:24;17.20;99.90
9790;DHT22;4934;50.852;8.098;2022-09-14T01:08:17;17.20;99.90
9790;DHT22;4934;50.852;8.098;2022-09-14T01:11:46;17.30;99.90
9790;DHT22;4934;50.852;8.098;2022-09-14T01:14:41;17.40;99.90
9790;DHT22;4934;50.852;8.098;2022-09-14T01:28:04;17.20;99.90
9790;DHT22;4934;50.852;8.098;2022-09-14T01:30:37;17.10;99.90
9790;DHT22;4934;50.852;8.098;2022-09-14T01:33:28;17.00;99.90
9790;DHT22;4934;50.852;8.098;2022-09-14T01:35:58;17.00;99.90
9790;DHT22;4934;50.852;8.098;2022-09-14T01:38:34;17.00;99.90
9790;DHT22;4934;50.852;8.098;2022-09-14T01:41:05;17.00;99.90
9790;DHT22;4934;50.852;8.098;2022-09-14T01:43:38;17.00;99.90
9790;DHT22;4934;50.852;8.098;2022-09-14T01:46:17;17.00;99.90
9790;DHT22;4934;50.852;8.098;2022-09-14T01:51:47;17.00;99.90
9790;DHT22;4934;50.852;8.098;2022-09-14T01:54:17;17.00;99.90
9790;DHT22;4934;50.852;8.098;2022-09-14T01:56:57;17.00;99.90
9790;DHT22;4934;50.852;8.098;2022-09-14T01:59:28;17.00;99.90
9790;DHT22;4934;50.852;8.098;2022-09-14T02:02:21;17.00;99.90
9790;DHT22;4934;50.852;8.098;2022-09-14T02:07:24;17.00;99.90
9790;DHT22;4934;50.852;8.098;2022-09-14T02:09:53;17.00;99.90
9790;DHT22;4934;50.852;8.098;2022-09-14T02:12:19;17.00;99.90
9790;DHT22;4934;50.852;8.098;2022-09-14T02:14:47;17.00;99.90
9790;DHT22;4934;50.852;8.098;2022-09-14T02:23:13;17.20;99.90
9790;DHT22;4934;50.852;8.098;2022-09-14T02:25:39;17.20;99.90
9790;DHT22;4934;50.852;8.098;2022-09-14T02:28:06;17.10;99.90
9790;DHT22;4934;50.852;8.098;2022-09-14T02:33:28;17.00;99.90
9790;DHT22;4934;50.852;8.098;2022-09-14T02:36:04;17.00;99.90
9790;DHT22;4934;50.852;8.098;2022-09-14T02:41:57;17.00;99.90
9790;DHT22;4934;50.852;8.098;2022-09-14T02:56:04;17.00;99.90
9790;DHT22;4934;50.852;8.098;2022-09-14T02:58:40;17.10;99.90
9790;DHT22;4934;50.852;8.098;2022-09-14T03:01:08;17.00;99.90
9790;DHT22;4934;50.852;8.098;2022-09-14T03:03:34;17.00;99.90
9790;DHT22;4934;50.852;8.098;2022-09-14T03:06:00;17.00;99.90
9790;DHT22;4934;50.852;8.098;2022-09-14T03:08:26;17.00;99.90
9790;DHT22;4934;50.852;8.098;2022-09-14T03:10:52;17.00;99.90
9790;DHT22;4934;50.852;8.098;2022-09-14T03:13:19;17.00;99.90
9790;DHT22;4934;50.852;8.098;2022-09-14T03:15:45;17.10;99.90
9790;DHT22;4934;50.852;8.098;2022-09-14T03:18:14;17.10;99.90
9790;DHT22;4934;50.852;8.098;2022-09-14T03:20:39;17.20;99.90
9790;DHT22;4934;50.852;8.098;2022-09-14T03:23:05;17.10;99.90
9790;DHT22;4934;50.852;8.098;2022-09-14T03:25:39;17.00;99.90
9790;DHT22;4934;50.852;8.098;2022-09-14T03:28:06;17.00;99.90
9790;DHT22;4934;50.852;8.098;2022-09-14T03:30:33;16.90;99.90
9790;DHT22;4934;50.852;8.098;2022-09-14T03:32:59;16.90;99.90
9790;DHT22;4934;50.852;8.098;2022-09-14T03:35:27;16.90;99.90
9790;DHT22;4934;50.852;8.098;2022-09-14T03:37:52;16.90;99.90
9790;DHT22;4934;50.852;8.098;2022-09-14T03:40:18;16.90;99.90
9790;DHT22;4934;50.852;8.098;2022-09-14T03:42:48;16.90;99.90
9790;DHT22;4934;50.852;8.098;2022-09-14T03:45:16;16.90;99.90
9790;DHT22;4934;50.852;8.098;2022-09-14T03:47:42;16.90;99.90
9790;DHT22;4934;50.852;8.098;2022-09-14T03:50:10;16.90;99.90
9790;DHT22;4934;50.852;8.098;2022-09-14T03:52:36;16.90;99.90
9790;DHT22;4934;50.852;8.098;2022-09-14T03:55:04;16.90;99.90
9790;DHT22;4934;50.852;8.098;2022-09-14T03:57:31;16.90;99.90
9790;DHT22;4934;50.852;8.098;2022-09-14T03:59:57;16.90;99.90
9790;DHT22;4934;50.852;8.098;2022-09-14T04:02:23;16.90;99.90
9790;DHT22;4934;50.852;8.098;2022-09-14T04:04:48;16.90;99.90
9790;DHT22;4934;50.852;8.098;2022-09-14T04:07:15;16.90;99.90
9790;DHT22;4934;50.852;8.098;2022-09-14T04:09:41;16.90;99.90
9790;DHT22;4934;50.852;8.098;2022-09-14T04:12:08;16.90;99.90
9790;DHT22;4934;50.852;8.098;2022-09-14T04:14:33;16.90;99.90
9790;DHT22;4934;50.852;8.098;2022-09-14T04:17:02;16.90;99.90
9790;DHT22;4934;50.852;8.098;2022-09-14T04:19:27;16.90;99.90
9790;DHT22;4934;50.852;8.098;2022-09-14T04:21:53;16.90;99.90
9790;DHT22;4934;50.852;8.098;2022-09-14T04:24:19;16.90;99.90
9790;DHT22;4934;50.852;8.098;2022-09-14T04:26:45;16.90;99.90
9790;DHT22;4934;50.852;8.098;2022-09-14T04:29:27;16.90;99.90
9790;DHT22;4934;50.852;8.098;2022-09-14T04:31:54;16.90;99.90
9790;DHT22;4934;50.852;8.098;2022-09-14T04:34:20;16.90;99.90
9790;DHT22;4934;50.852;8.098;2022-09-14T04:36:46;16.90;99.90
9790;DHT22;4934;50.852;8.098;2022-09-14T04:39:11;16.90;99.90
9790;DHT22;4934;50.852;8.098;2022-09-14T04:41:38;16.90;99.90
9790;DHT22;4934;50.852;8.098;2022-09-14T04:44:04;16.90;99.90
9790;DHT22;4934;50.852;8.098;2022-09-14T04:46:32;16.90;99.90
9790;DHT22;4934;50.852;8.098;2022-09-14T04:48:59;16.90;99.90
9790;DHT22;4934;50.852;8.098;2022-09-14T04:51:27;16.80;99.90
9790;DHT22;4934;50.852;8.098;2022-09-14T04:53:54;16.80;99.90
9790;DHT22;4934;50.852;8.098;2022-09-14T04:56:24;16.80;99.90
9790;DHT22;4934;50.852;8.098;2022-09-14T04:58:53;16.80;99.90
9790;DHT22;4934;50.852;8.098;2022-09-14T05:01:22;16.80;99.90
9790;DHT22;4934;50.852;8.098;2022-09-14T05:03:48;16.80;99.90
9790;DHT22;4934;50.852;8.098;2022-09-14T05:06:16;16.80;99.90
9790;DHT22;4934;50.852;8.098;2022-09-14T05:08:43;16.80;99.90
9790;DHT22;4934;50.852;8.098;2022-09-14T05:11:12;16.80;99.90
9790;DHT22;4934;50.852;8.098;2022-09-14T05:13:37;16.80;99.90
9790;DHT22;4934;50.852;8.098;2022-09-14T05:16:33;16.80;99.90
9790;DHT22;4934;50.852;8.098;2022-09-14T05:19:04;16.80;99.90
9790;DHT22;4934;50.852;8.098;2022-09-14T05:21:32;16.90;99.90
9790;DHT22;4934;50.852;8.098;2022-09-14T05:24:04;16.90;99.90
9790;DHT22;4934;50.852;8.098;2022-09-14T05:26:30;16.90;99.90
9790;DHT22;4934;50.852;8.098;2022-09-14T05:28:57;16.90;99.90
9790;DHT22;4934;50.852;8.098;2022-09-14T05:31:33;16.90;99.90
9790;DHT22;4934;50.852;8.098;2022-09-14T05:33:59;16.90;99.90
9790;DHT22;4934;50.852;8.098;2022-09-14T05:36:25;16.90;99.90
9790;DHT22;4934;50.852;8.098;2022-09-14T05:38:51;16.90;99.90
9790;DHT22;4934;50.852;8.098;2022-09-14T05:41:17;16.90;99.90
9790;DHT22;4934;50.852;8.098;2022-09-14T05:43:42;16.90;99.90
9790;DHT22;4934;50.852;8.098;2022-09-14T05:46:14;17.00;99.90
9790;DHT22;4934;50.852;8.098;2022-09-14T05:48:41;17.00;99.90
9790;DHT22;4934;50.852;8.098;2022-09-14T05:51:16;17.00;99.90
9790;DHT22;4934;50.852;8.098;2022-09-14T05:53:46;17.00;99.90
9790;DHT22;4934;50.852;8.098;2022-09-14T05:56:13;17.00;99.90
9790;DHT22;4934;50.852;8.098;2022-09-14T05:58:41;17.00;99.90
9790;DHT22;4934;50.852;8.098;2022-09-14T06:01:09;17.00;99.90
9790;DHT22;4934;50.852;8.098;2022-09-14T06:03:34;17.00;99.90
9790;DHT22;4934;50.852;8.098;2022-09-14T06:06:00;17.00;99.90
9790;DHT22;4934;50.852;8.098;2022-09-14T06:08:26;17.00;99.90
9790;DHT22;4934;50.852;8.098;2022-09-14T06:10:52;17.00;99.90
9790;DHT22;4934;50.852;8.098;2022-09-14T06:13:18;17.00;99.90
9790;DHT22;4934;50.852;8.098;2022-09-14T06:15:43;17.00;99.90
9790;DHT22;4934;50.852;8.098;2022-09-14T06:18:09;17.00;99.90
9790;DHT22;4934;50.852;8.098;2022-09-14T06:20:34;17.00;99.90
9790;DHT22;4934;50.852;8.098;2022-09-14T06:23:01;17.00;99.90
9790;DHT22;4934;50.852;8.098;2022-09-14T06:25:27;17.00;99.90
9790;DHT22;4934;50.852;8.098;2022-09-14T06:27:54;17.00;99.90
9790;DHT22;4934;50.852;8.098;2022-09-14T06:30:20;17.10;99.90
9790;DHT22;4934;50.852;8.098;2022-09-14T06:32:46;17.10;99.90
9790;DHT22;4934;50.852;8.098;2022-09-14T06:35:11;17.10;99.90
9790;DHT22;4934;50.852;8.098;2022-09-14T06:37:37;17.10;99.90
9790;DHT22;4934;50.852;8.098;2022-09-14T06:40:03;17.10;99.90
9790;DHT22;4934;50.852;8.098;2022-09-14T06:42:31;17.10;99.90
9790;DHT22;4934;50.852;8.098;2022-09-14T06:44:57;17.20;99.90
9790;DHT22;4934;50.852;8.098;2022-09-14T06:47:24;17.20;99.90
9790;DHT22;4934;50.852;8.098;2022-09-14T06:49:50;17.20;99.90
9790;DHT22;4934;50.852;8.098;2022-09-14T06:52:16;17.30;99.90
9790;DHT22;4934;50.852;8.098;2022-09-14T06:54:42;17.30;99.90
9790;DHT22;4934;50.852;8.098;2022-09-14T06:57:08;17.30;99.90
9790;DHT22;4934;50.852;8.098;2022-09-14T06:59:34;17.30;99.90
9790;DHT22;4934;50.852;8.098;2022-09-14T07:02:00;17.40;99.90
9790;DHT22;4934;50.852;8.098;2022-09-14T07:04:25;17.40;99.90
9790;DHT22;4934;50.852;8.098;2022-09-14T07:06:51;17.40;99.90
9790;DHT22;4934;50.852;8.098;2022-09-14T07:09:18;17.40;99.90
9790;DHT22;4934;50.852;8.098;2022-09-14T07:11:44;17.30;99.90
9790;DHT22;4934;50.852;8.098;2022-09-14T07:14:10;17.30;99.90
9790;DHT22;4934;50.852;8.098;2022-09-14T07:16:37;17.30;99.90
9790;DHT22;4934;50.852;8.098;2022-09-14T07:19:06;17.40;99.90
9790;DHT22;4934;50.852;8.098;2022-09-14T07:21:34;17.40;99.90
9790;DHT22;4934;50.852;8.098;2022-09-14T07:24:00;17.50;99.90
9790;DHT22;4934;50.852;8.098;2022-09-14T07:26:31;17.50;99.90
9790;DHT22;4934;50.852;8.098;2022-09-14T07:29:00;17.50;99.90
9790;DHT22;4934;50.852;8.098;2022-09-14T07:31:30;17.50;99.90
9790;DHT22;4934;50.852;8.098;2022-09-14T07:33:59;17.60;99.90
9790;DHT22;4934;50.852;8.098;2022-09-14T07:36:26;17.60;99.90
9790;DHT22;4934;50.852;8.098;2022-09-14T07:38:54;17.60;99.90
9790;DHT22;4934;50.852;8.098;2022-09-14T07:41:23;17.60;99.90
9790;DHT22;4934;50.852;8.098;2022-09-14T07:43:56;17.60;99.90
9790;DHT22;4934;50.852;8.098;2022-09-14T07:46:22;17.60;99.90
9790;DHT22;4934;50.852;8.098;2022-09-14T07:48:53;17.60;99.90
9790;DHT22;4934;50.852;8.098;2022-09-14T07:51:19;17.60;99.90
9790;DHT22;4934;50.852;8.098;2022-09-14T07:53:44;17.70;99.90
9790;DHT22;4934;50.852;8.098;2022-09-14T07:56:12;17.70;99.90
9790;DHT22;4934;50.852;8.098;2022-09-14T07:58:38;17.90;99.90
9790;DHT22;4934;50.852;8.098;2022-09-14T08:01:10;17.80;99.90
9790;DHT22;4934;50.852;8.098;2022-09-14T08:03:41;17.80;99.90
9790;DHT22;4934;50.852;8.098;2022-09-14T08:06:20;17.80;99.90
9790;DHT22;4934;50.852;8.098;2022-09-14T08:08:49;17.90;99.90
9790;DHT22;4934;50.852;8.098;2022-09-14T08:11:23;17.90;99.90
9790;DHT22;4934;50.852;8.098;2022-09-14T08:13:54;17.90;99.90
9790;DHT22;4934;50.852;8.098;2022-09-14T08:16:21;17.90;99.90
9790;DHT22;4934;50.852;8.098;2022-09-14T08:18:51;17.90;99.90
9790;DHT22;4934;50.852;8.098;2022-09-14T08:21:17;17.90;99.90
9790;DHT22;4934;50.852;8.098;2022-09-14T08:23:43;18.00;99.90
9790;DHT22;4934;50.852;8.098;2022-09-14T08:26:27;18.10;99.90
9790;DHT22;4934;50.852;8.098;2022-09-14T08:28:54;18.20;99.90
9790;DHT22;4934;50.852;8.098;2022-09-14T08:31:24;18.20;99.90
9790;DHT22;4934;50.852;8.098;2022-09-14T08:33:59;18.20;99.90
9790;DHT22;4934;50.852;8.098;2022-09-14T08:36:28;18.30;99.90
9790;DHT22;4934;50.852;8.098;2022-09-14T08:38:54;18.30;99.90
9790;DHT22;4934;50.852;8.098;2022-09-14T08:41:27;18.30;99.90
9790;DHT22;4934;50.852;8.098;2022-09-14T08:43:54;18.40;99.90
9790;DHT22;4934;50.852;8.098;2022-09-14T08:46:28;18.50;99.90
9790;DHT22;4934;50.852;8.098;2022-09-14T08:48:55;18.50;99.90
9790;DHT22;4934;50.852;8.098;2022-09-14T08:51:21;18.60;99.90
9790;DHT22;4934;50.852;8.098;2022-09-14T08:53:49;18.60;99.90
9790;DHT22;4934;50.852;8.098;2022-09-14T08:56:20;18.70;99.90
9790;DHT22;4934;50.852;8.098;2022-09-14T09:04:46;18.80;99.90
9790;DHT22;4934;50.852;8.098;2022-09-14T09:07:45;18.90;99.90
9790;DHT22;4934;50.852;8.098;2022-09-14T09:10:13;19.10;99.90
9790;DHT22;4934;50.852;8.098;2022-09-14T09:12:51;19.20;99.90
9790;DHT22;4934;50.852;8.098;2022-09-14T09:15:29;19.20;99.90
9790;DHT22;4934;50.852;8.098;2022-09-14T09:18:00;19.30;99.90
9790;DHT22;4934;50.852;8.098;2022-09-14T09:20:33;19.30;99.90
9790;DHT22;4934;50.852;8.098;2022-09-14T09:23:19;19.20;99.90
9790;DHT22;4934;50.852;8.098;2022-09-14T09:28:24;19.20;99.90
9790;DHT22;4934;50.852;8.098;2022-09-14T09:30:51;19.20;99.90
9790;DHT22;4934;50.852;8.098;2022-09-14T09:33:23;19.30;99.90
9790;DHT22;4934;50.852;8.098;2022-09-14T09:35:50;19.30;99.90
9790;DHT22;4934;50.852;8.098;2022-09-14T09:38:22;19.20;99.90
9790;DHT22;4934;50.852;8.098;2022-09-14T09:43:24;19.30;99.90
9790;DHT22;4934;50.852;8.098;2022-09-14T09:45:59;19.40;99.90
9790;DHT22;4934;50.852;8.098;2022-09-14T09:48:45;19.40;99.90
9790;DHT22;4934;50.852;8.098;2022-09-14T09:51:12;19.30;99.90
9790;DHT22;4934;50.852;8.098;2022-09-14T09:53:56;19.30;99.90
9790;DHT22;4934;50.852;8.098;2022-09-14T09:56:32;19.40;99.90
9790;DHT22;4934;50.852;8.098;2022-09-14T09:58:59;19.50;99.90
9790;DHT22;4934;50.852;8.098;2022-09-14T10:01:32;19.50;99.90
9790;DHT22;4934;50.852;8.098;2022-09-14T10:04:03;19.50;99.90
9790;DHT22;4934;50.852;8.098;2022-09-14T10:06:29;19.50;99.90
9790;DHT22;4934;50.852;8.098;2022-09-14T10:08:56;19.50;99.90
9790;DHT22;4934;50.852;8.098;2022-09-14T10:11:35;19.50;99.90
9790;DHT22;4934;50.852;8.098;2022-09-14T10:14:03;19.40;99.90
9790;DHT22;4934;50.852;8.098;2022-09-14T10:16:35;19.40;99.90
9790;DHT22;4934;50.852;8.098;2022-09-14T10:19:02;19.50;99.90
9790;DHT22;4934;50.852;8.098;2022-09-14T10:21:28;19.40;99.90
9790;DHT22;4934;50.852;8.098;2022-09-14T10:24:25;19.30;99.90
9790;DHT22;4934;50.852;8.098;2022-09-14T10:26:51;19.30;99.90
9790;DHT22;4934;50.852;8.098;2022-09-14T10:32:06;19.20;99.90
9790;DHT22;4934;50.852;8.098;2022-09-14T10:34:35;19.20;99.90
9790;DHT22;4934;50.852;8.098;2022-09-14T10:42:38;19.10;99.90
9790;DHT22;4934;50.852;8.098;2022-09-14T10:48:14;19.20;99.90
9790;DHT22;4934;50.852;8.098;2022-09-14T10:51:21;19.30;99.90
9790;DHT22;4934;50.852;8.098;2022-09-14T10:54:11;19.40;99.90
9790;DHT22;4934;50.852;8.098;2022-09-14T10:56:56;19.50;99.90
9790;DHT22;4934;50.852;8.098;2022-09-14T10:59:32;19.30;99.90
9790;DHT22;4934;50.852;8.098;2022-09-14T11:02:16;19.50;99.90
9790;DHT22;4934;50.852;8.098;2022-09-14T11:24:02;20.10;99.90
9790;DHT22;4934;50.852;8.098;2022-09-14T11:26:35;20.10;99.90
9790;DHT22;4934;50.852;8.098;2022-09-14T11:32:20;20.00;99.90
9790;DHT22;4934;50.852;8.098;2022-09-14T11:35:03;19.90;99.90
9790;DHT22;4934;50.852;8.098;2022-09-14T11:37:42;19.80;99.90
9790;DHT22;4934;50.852;8.098;2022-09-14T11:43:09;19.70;99.90
9790;DHT22;4934;50.852;8.098;2022-09-14T11:45:48;19.70;99.90
9790;DHT22;4934;50.852;8.098;2022-09-14T11:48:29;19.70;99.90
9790;DHT22;4934;50.852;8.098;2022-09-14T11:51:05;19.60;99.90
9790;DHT22;4934;50.852;8.098;2022-09-14T11:53:33;19.60;99.90
9790;DHT22;4934;50.852;8.098;2022-09-14T11:55:59;19.60;99.90
9790;DHT22;4934;50.852;8.098;2022-09-14T11:58:27;19.60;99.90
9790;DHT22;4934;50.852;8.098;2022-09-14T12:04:15;19.30;99.90
9790;DHT22;4934;50.852;8.098;2022-09-14T12:06:44;19.30;99.90
9790;DHT22;4934;50.852;8.098;2022-09-14T12:11:46;19.00;99.90
9790;DHT22;4934;50.852;8.098;2022-09-14T12:17:19;18.70;99.90
9790;DHT22;4934;50.852;8.098;2022-09-14T12:19:48;18.70;99.90
9790;DHT22;4934;50.852;8.098;2022-09-14T12:22:35;18.80;99.90
9790;DHT22;4934;50.852;8.098;2022-09-14T12:25:15;18.70;99.90
9790;DHT22;4934;50.852;8.098;2022-09-14T12:27:43;18.80;99.90
9790;DHT22;4934;50.852;8.098;2022-09-14T12:32:58;18.60;99.90
9790;DHT22;4934;50.852;8.098;2022-09-14T12:37:59;18.90;99.90
9790;DHT22;4934;50.852;8.098;2022-09-14T12:40:45;19.00;99.90
9790;DHT22;4934;50.852;8.098;2022-09-14T12:56:45;19.50;99.90
9790;DHT22;4934;50.852;8.098;2022-09-14T12:59:23;19.40;99.90
9790;DHT22;4934;50.852;8.098;2022-09-14T13:02:18;19.40;99.90
9790;DHT22;4934;50.852;8.098;2022-09-14T13:04:52;19.40;99.90
9790;DHT22;4934;50.852;8.098;2022-09-14T13:07:19;19.50;99.90
9790;DHT22;4934;50.852;8.098;2022-09-14T13:09:53;19.50;99.90
9790;DHT22;4934;50.852;8.098;2022-09-14T13:15:14;19.60;99.90
9790;DHT22;4934;50.852;8.098;2022-09-14T13:18:22;19.30;99.90
9790;DHT22;4934;50.852;8.098;2022-09-14T13:21:01;19.30;99.90
9790;DHT22;4934;50.852;8.098;2022-09-14T13:23:36;19.50;99.90
9790;DHT22;4934;50.852;8.098;2022-09-14T13:26:14;19.50;99.90
9790;DHT22;4934;50.852;8.098;2022-09-14T13:28:43;19.50;99.90
9790;DHT22;4934;50.852;8.098;2022-09-14T13:31:12;19.50;99.90
9790;DHT22;4934;50.852;8.098;2022-09-14T13:33:49;19.50;99.90
9790;DHT22;4934;50.852;8.098;2022-09-14T13:36:23;19.50;99.90
9790;DHT22;4934;50.852;8.098;2022-09-14T13:38:49;19.50;99.90
9790;DHT22;4934;50.852;8.098;2022-09-14T13:41:16;19.50;99.90
9790;DHT22;4934;50.852;8.098;2022-09-14T13:43:44;19.50;99.90
9790;DHT22;4934;50.852;8.098;2022-09-14T13:46:11;19.50;99.90
9790;DHT22;4934;50.852;8.098;2022-09-14T13:48:39;19.40;99.90
9790;DHT22;4934;50.852;8.098;2022-09-14T13:51:06;19.30;99.90
9790;DHT22;4934;50.852;8.098;2022-09-14T13:53:41;19.30;99.90
9790;DHT22;4934;50.852;8.098;2022-09-14T14:01:50;18.60;99.90
9790;DHT22;4934;50.852;8.098;2022-09-14T14:04:37;18.40;99.90
9790;DHT22;4934;50.852;8.098;2022-09-14T14:09:53;18.50;99.90
9790;DHT22;4934;50.852;8.098;2022-09-14T14:12:24;18.40;99.90
9790;DHT22;4934;50.852;8.098;2022-09-14T14:15:43;18.30;99.90
9790;DHT22;4934;50.852;8.098;2022-09-14T14:17:52;18.40;99.90
9790;DHT22;4934;50.852;8.098;2022-09-14T14:20:33;18.10;99.90
9790;DHT22;4934;50.852;8.098;2022-09-14T14:25:43;18.10;99.90
9790;DHT22;4934;50.852;8.098;2022-09-14T14:28:27;18.10;99.90
9790;DHT22;4934;50.852;8.098;2022-09-14T14:30:58;18.20;99.90
9790;DHT22;4934;50.852;8.098;2022-09-14T14:33:25;18.30;99.90
9790;DHT22;4934;50.852;8.098;2022-09-14T14:35:52;18.10;99.90
9790;DHT22;4934;50.852;8.098;2022-09-14T14:38:21;18.10;99.90
9790;DHT22;4934;50.852;8.098;2022-09-14T14:40:48;18.20;99.90
9790;DHT22;4934;50.852;8.098;2022-09-14T14:43:19;18.00;99.90
9790;DHT22;4934;50.852;8.098;2022-09-14T14:45:46;18.10;99.90
9790;DHT22;4934;50.852;8.098;2022-09-14T14:48:12;18.10;99.90
9790;DHT22;4934;50.852;8.098;2022-09-14T14:50:38;18.10;99.90
9790;DHT22;4934;50.852;8.098;2022-09-14T14:53:04;18.00;99.90
9790;DHT22;4934;50.852;8.098;2022-09-14T14:55:31;18.00;99.90
9790;DHT22;4934;50.852;8.098;2022-09-14T14:57:59;17.90;99.90
9790;DHT22;4934;50.852;8.098;2022-09-14T15:00:26;18.00;99.90
9790;DHT22;4934;50.852;8.098;2022-09-14T15:02:52;17.90;99.90
9790;DHT22;4934;50.852;8.098;2022-09-14T15:05:18;18.00;99.90
9790;DHT22;4934;50.852;8.098;2022-09-14T15:07:44;18.00;99.90
9790;DHT22;4934;50.852;8.098;2022-09-14T15:10:14;17.90;99.90
9790;DHT22;4934;50.852;8.098;2022-09-14T15:12:40;17.80;99.90
9790;DHT22;4934;50.852;8.098;2022-09-14T15:15:23;17.70;99.90
9790;DHT22;4934;50.852;8.098;2022-09-14T15:17:50;17.80;99.90
9790;DHT22;4934;50.852;8.098;2022-09-14T15:20:16;18.00;99.90
9790;DHT22;4934;50.852;8.098;2022-09-14T15:22:45;17.90;99.90
9790;DHT22;4934;50.852;8.098;2022-09-14T15:25:13;17.80;99.90
9790;DHT22;4934;50.852;8.098;2022-09-14T15:27:40;17.80;99.90
9790;DHT22;4934;50.852;8.098;2022-09-14T15:30:07;17.70;99.90
9790;DHT22;4934;50.852;8.098;2022-09-14T15:32:34;17.60;99.90
9790;DHT22;4934;50.852;8.098;2022-09-14T15:35:00;17.60;99.90
9790;DHT22;4934;50.852;8.098;2022-09-14T15:37:25;17.60;99.90
9790;DHT22;4934;50.852;8.098;2022-09-14T15:39:51;17.40;99.90
9790;DHT22;4934;50.852;8.098;2022-09-14T15:42:17;17.50;99.90
9790;DHT22;4934;50.852;8.098;2022-09-14T15:44:42;17.40;99.90
9790;DHT22;4934;50.852;8.098;2022-09-14T15:47:09;17.30;99.90
9790;DHT22;4934;50.852;8.098;2022-09-14T15:49:35;17.30;99.90
9790;DHT22;4934;50.852;8.098;2022-09-14T15:52:01;17.40;99.90
9790;DHT22;4934;50.852;8.098;2022-09-14T15:54:31;17.50;99.90
9790;DHT22;4934;50.852;8.098;2022-09-14T15:56:58;17.40;99.90
9790;DHT22;4934;50.852;8.098;2022-09-14T15:59:26;17.30;99.90
9790;DHT22;4934;50.852;8.098;2022-09-14T16:01:52;17.30;99.90
9790;DHT22;4934;50.852;8.098;2022-09-14T16:04:18;17.30;99.90
9790;DHT22;4934;50.852;8.098;2022-09-14T16:06:45;17.20;99.90
9790;DHT22;4934;50.852;8.098;2022-09-14T16:09:12;17.20;99.90
9790;DHT22;4934;50.852;8.098;2022-09-14T16:11:38;17.30;99.90
9790;DHT22;4934;50.852;8.098;2022-09-14T16:14:05;17.30;99.90
9790;DHT22;4934;50.852;8.098;2022-09-14T16:16:31;17.20;99.90
9790;DHT22;4934;50.852;8.098;2022-09-14T16:18:57;17.10;99.90
9790;DHT22;4934;50.852;8.098;2022-09-14T16:21:28;17.00;99.90
9790;DHT22;4934;50.852;8.098;2022-09-14T16:23:57;17.10;99.90
9790;DHT22;4934;50.852;8.098;2022-09-14T16:26:30;17.10;99.90
9790;DHT22;4934;50.852;8.098;2022-09-14T16:28:57;17.10;99.90
9790;DHT22;4934;50.852;8.098;2022-09-14T16:31:26;17.10;99.90
9790;DHT22;4934;50.852;8.098;2022-09-14T16:33:54;17.00;99.90
9790;DHT22;4934;50.852;8.098;2022-09-14T16:36:22;17.00;99.90
9790;DHT22;4934;50.852;8.098;2022-09-14T16:39:02;17.00;99.90
9790;DHT22;4934;50.852;8.098;2022-09-14T16:41:28;17.00;99.90
9790;DHT22;4934;50.852;8.098;2022-09-14T16:43:55;17.00;99.90
9790;DHT22;4934;50.852;8.098;2022-09-14T16:46:21;17.00;99.90
9790;DHT22;4934;50.852;8.098;2022-09-14T16:48:47;17.00;99.90
9790;DHT22;4934;50.852;8.098;2022-09-14T16:51:18;17.00;99.90
9790;DHT22;4934;50.852;8.098;2022-09-14T16:53:45;17.00;99.90
9790;DHT22;4934;50.852;8.098;2022-09-14T16:56:32;17.10;99.90
9790;DHT22;4934;50.852;8.098;2022-09-14T16:58:59;17.00;99.90
9790;DHT22;4934;50.852;8.098;2022-09-14T17:01:29;17.10;99.90
9790;DHT22;4934;50.852;8.098;2022-09-14T17:04:00;17.10;99.90
9790;DHT22;4934;50.852;8.098;2022-09-14T17:06:30;17.10;99.90
9790;DHT22;4934;50.852;8.098;2022-09-14T17:08:59;17.10;99.90
9790;DHT22;4934;50.852;8.098;2022-09-14T17:11:25;17.10;99.90
9790;DHT22;4934;50.852;8.098;2022-09-14T17:13:51;17.00;99.90
9790;DHT22;4934;50.852;8.098;2022-09-14T17:16:19;17.00;99.90
9790;DHT22;4934;50.852;8.098;2022-09-14T17:18:47;16.80;99.90
9790;DHT22;4934;50.852;8.098;2022-09-14T17:21:25;16.80;99.90
9790;DHT22;4934;50.852;8.098;2022-09-14T17:23:50;16.70;99.90
9790;DHT22;4934;50.852;8.098;2022-09-14T17:26:18;16.80;99.90
9790;DHT22;4934;50.852;8.098;2022-09-14T17:28:45;16.70;99.90
9790;DHT22;4934;50.852;8.098;2022-09-14T17:31:15;16.50;99.90
9790;DHT22;4934;50.852;8.098;2022-09-14T17:33:41;16.60;99.90
9790;DHT22;4934;50.852;8.098;2022-09-14T17:36:07;16.40;99.90
9790;DHT22;4934;50.852;8.098;2022-09-14T17:38:35;16.40;99.90
9790;DHT22;4934;50.852;8.098;2022-09-14T17:41:02;16.50;99.90
9790;DHT22;4934;50.852;8.098;2022-09-14T17:43:29;16.50;99.90
9790;DHT22;4934;50.852;8.098;2022-09-14T17:45:56;16.40;99.90
9790;DHT22;4934;50.852;8.098;2022-09-14T17:48:23;16.40;99.90
9790;DHT22;4934;50.852;8.098;2022-09-14T17:50:49;16.30;99.90
9790;DHT22;4934;50.852;8.098;2022-09-14T17:53:15;16.40;99.90
9790;DHT22;4934;50.852;8.098;2022-09-14T17:55:41;16.40;99.90
9790;DHT22;4934;50.852;8.098;2022-09-14T17:58:07;16.40;99.90
9790;DHT22;4934;50.852;8.098;2022-09-14T18:00:33;16.40;99.90
9790;DHT22;4934;50.852;8.098;2022-09-14T18:02:58;16.40;99.90
9790;DHT22;4934;50.852;8.098;2022-09-14T18:05:25;16.50;99.90
9790;DHT22;4934;50.852;8.098;2022-09-14T18:07:50;16.40;99.90
9790;DHT22;4934;50.852;8.098;2022-09-14T18:10:17;16.40;99.90
9790;DHT22;4934;50.852;8.098;2022-09-14T18:12:43;16.40;99.90
9790;DHT22;4934;50.852;8.098;2022-09-14T18:15:11;16.30;99.90
9790;DHT22;4934;50.852;8.098;2022-09-14T18:17:37;16.30;99.90
9790;DHT22;4934;50.852;8.098;2022-09-14T18:20:03;16.30;99.90
9790;DHT22;4934;50.852;8.098;2022-09-14T18:22:30;16.40;99.90
9790;DHT22;4934;50.852;8.098;2022-09-14T18:24:56;16.40;99.90
9790;DHT22;4934;50.852;8.098;2022-09-14T18:27:21;16.40;99.90
9790;DHT22;4934;50.852;8.098;2022-09-14T18:29:47;16.30;99.90
9790;DHT22;4934;50.852;8.098;2022-09-14T18:32:12;16.30;99.90